Lost City, West Virginia
Current Conditions -  °F | °C
As of 11:50 AM on Wednesday 26 Nov 2014 (Local Time) from KW99 Reporting Station
Moderate Snow Moderate Snow  
Wind Chill: 32°   Ceiling: 200
Heat Index: 32°   Visibility: 0.5mi
Dew Point: 32°   Wind: 0mph
Humidity: 98%   Direction: NA
Pressure: 30.05"   Gusts: NA
Location:  38.93°N, 78.83°W
Report Text: KW99 261650Z AUTO 00000KT 1/2SM SN OVC002 00/00 A3005 RMK AO2 T00011002
Loading
Personal Weather Stations






























Interactive Weather Map New forecast layout! Learn more

10-Day Weather Forecast

Advertisements
Track Severe Weather on mobile